sensor_id;sensor_type;location;lat;lon;timestamp;temperature;humidity
47813;DHT22;34221;45.296;9.516;2023-03-16T00:00:08;9.40;76.70
47813;DHT22;34221;45.296;9.516;2023-03-16T00:00:27;9.40;76.70
47813;DHT22;34221;45.296;9.516;2023-03-16T00:00:42;9.40;76.50
47813;DHT22;34221;45.296;9.516;2023-03-16T00:01:03;9.40;76.20
47813;DHT22;34221;45.296;9.516;2023-03-16T00:01:19;9.40;76.10
47813;DHT22;34221;45.296;9.516;2023-03-16T00:01:35;9.40;77.00
47813;DHT22;34221;45.296;9.516;2023-03-16T00:01:50;9.40;77.00
47813;DHT22;34221;45.296;9.516;2023-03-16T00:02:06;9.40;76.60
47813;DHT22;34221;45.296;9.516;2023-03-16T00:02:21;9.40;76.20
47813;DHT22;34221;45.296;9.516;2023-03-16T00:02:38;9.40;76.30
47813;DHT22;34221;45.296;9.516;2023-03-16T00:02:56;9.40;76.60
47813;DHT22;34221;45.296;9.516;2023-03-16T00:03:11;9.40;77.10
47813;DHT22;34221;45.296;9.516;2023-03-16T00:03:33;9.40;76.80
47813;DHT22;34221;45.296;9.516;2023-03-16T00:03:52;9.40;77.00
47813;DHT22;34221;45.296;9.516;2023-03-16T00:04:07;9.40;76.70
47813;DHT22;34221;45.296;9.516;2023-03-16T00:04:22;9.40;76.60
47813;DHT22;34221;45.296;9.516;2023-03-16T00:04:38;9.40;77.10
47813;DHT22;34221;45.296;9.516;2023-03-16T00:04:56;9.40;77.10
47813;DHT22;34221;45.296;9.516;2023-03-16T00:05:12;9.40;76.50
47813;DHT22;34221;45.296;9.516;2023-03-16T00:05:28;9.40;76.10
47813;DHT22;34221;45.296;9.516;2023-03-16T00:05:43;9.40;75.80
47813;DHT22;34221;45.296;9.516;2023-03-16T00:06:00;9.30;75.70
47813;DHT22;34221;45.296;9.516;2023-03-16T00:06:15;9.30;75.70
47813;DHT22;34221;45.296;9.516;2023-03-16T00:06:30;9.30;75.70
47813;DHT22;34221;45.296;9.516;2023-03-16T00:06:45;9.30;75.70
47813;DHT22;34221;45.296;9.516;2023-03-16T00:06:59;9.30;75.80
47813;DHT22;34221;45.296;9.516;2023-03-16T00:07:14;9.30;75.80
47813;DHT22;34221;45.296;9.516;2023-03-16T00:07:30;9.30;75.80
47813;DHT22;34221;45.296;9.516;2023-03-16T00:07:45;9.30;75.70
47813;DHT22;34221;45.296;9.516;2023-03-16T00:08:00;9.30;75.80
47813;DHT22;34221;45.296;9.516;2023-03-16T00:08:15;9.30;75.80
47813;DHT22;34221;45.296;9.516;2023-03-16T00:08:31;9.30;75.90
47813;DHT22;34221;45.296;9.516;2023-03-16T00:08:46;9.30;75.90
47813;DHT22;34221;45.296;9.516;2023-03-16T00:09:01;9.30;76.00
47813;DHT22;34221;45.296;9.516;2023-03-16T00:09:17;9.30;76.40
47813;DHT22;34221;45.296;9.516;2023-03-16T00:09:32;9.30;77.00
47813;DHT22;34221;45.296;9.516;2023-03-16T00:09:47;9.30;76.00
47813;DHT22;34221;45.296;9.516;2023-03-16T00:10:02;9.30;75.90
47813;DHT22;34221;45.296;9.516;2023-03-16T00:10:18;9.30;75.70
47813;DHT22;34221;45.296;9.516;2023-03-16T00:10:35;9.30;75.60
47813;DHT22;34221;45.296;9.516;2023-03-16T00:10:51;9.30;75.40
47813;DHT22;34221;45.296;9.516;2023-03-16T00:11:07;9.30;75.90
47813;DHT22;34221;45.296;9.516;2023-03-16T00:11:22;9.30;76.70
47813;DHT22;34221;45.296;9.516;2023-03-16T00:11:38;9.40;76.40
47813;DHT22;34221;45.296;9.516;2023-03-16T00:11:53;9.30;76.50
47813;DHT22;34221;45.296;9.516;2023-03-16T00:12:13;9.40;76.90
47813;DHT22;34221;45.296;9.516;2023-03-16T00:12:29;9.40;76.80
47813;DHT22;34221;45.296;9.516;2023-03-16T00:12:48;9.40;76.50
47813;DHT22;34221;45.296;9.516;2023-03-16T00:13:03;9.30;76.10
47813;DHT22;34221;45.296;9.516;2023-03-16T00:13:19;9.30;75.60
47813;DHT22;34221;45.296;9.516;2023-03-16T00:13:38;9.40;75.60
47813;DHT22;34221;45.296;9.516;2023-03-16T00:13:53;9.30;75.50
47813;DHT22;34221;45.296;9.516;2023-03-16T00:14:08;9.40;75.90
47813;DHT22;34221;45.296;9.516;2023-03-16T00:14:24;9.30;75.80
47813;DHT22;34221;45.296;9.516;2023-03-16T00:14:39;9.30;75.80
47813;DHT22;34221;45.296;9.516;2023-03-16T00:14:55;9.30;75.70
47813;DHT22;34221;45.296;9.516;2023-03-16T00:15:11;9.30;75.60
47813;DHT22;34221;45.296;9.516;2023-03-16T00:15:26;9.30;75.60
47813;DHT22;34221;45.296;9.516;2023-03-16T00:15:48;9.30;76.00
47813;DHT22;34221;45.296;9.516;2023-03-16T00:16:21;9.30;76.10
47813;DHT22;34221;45.296;9.516;2023-03-16T00:16:36;9.30;76.80
47813;DHT22;34221;45.296;9.516;2023-03-16T00:16:51;9.30;77.50
47813;DHT22;34221;45.296;9.516;2023-03-16T00:17:06;9.30;77.00
47813;DHT22;34221;45.296;9.516;2023-03-16T00:17:22;9.30;76.90
47813;DHT22;34221;45.296;9.516;2023-03-16T00:17:37;9.30;77.10
47813;DHT22;34221;45.296;9.516;2023-03-16T00:17:52;9.30;77.30
47813;DHT22;34221;45.296;9.516;2023-03-16T00:18:08;9.30;76.40
47813;DHT22;34221;45.296;9.516;2023-03-16T00:18:24;9.30;76.40
47813;DHT22;34221;45.296;9.516;2023-03-16T00:18:41;9.30;77.00
47813;DHT22;34221;45.296;9.516;2023-03-16T00:18:56;9.30;77.50
47813;DHT22;34221;45.296;9.516;2023-03-16T00:19:12;9.30;77.00
47813;DHT22;34221;45.296;9.516;2023-03-16T00:19:27;9.30;76.80
47813;DHT22;34221;45.296;9.516;2023-03-16T00:19:43;9.30;76.50
47813;DHT22;34221;45.296;9.516;2023-03-16T00:20:00;9.30;76.30
47813;DHT22;34221;45.296;9.516;2023-03-16T00:20:17;9.30;76.30
47813;DHT22;34221;45.296;9.516;2023-03-16T00:20:32;9.30;76.20
47813;DHT22;34221;45.296;9.516;2023-03-16T00:20:56;9.20;75.90
47813;DHT22;34221;45.296;9.516;2023-03-16T00:21:13;9.20;75.80
47813;DHT22;34221;45.296;9.516;2023-03-16T00:21:28;9.20;76.20
47813;DHT22;34221;45.296;9.516;2023-03-16T00:21:45;9.10;76.20
47813;DHT22;34221;45.296;9.516;2023-03-16T00:22:00;9.10;76.00
47813;DHT22;34221;45.296;9.516;2023-03-16T00:22:16;9.10;76.70
47813;DHT22;34221;45.296;9.516;2023-03-16T00:22:31;9.10;76.70
47813;DHT22;34221;45.296;9.516;2023-03-16T00:22:46;9.10;76.70
47813;DHT22;34221;45.296;9.516;2023-03-16T00:23:01;9.10;76.70
47813;DHT22;34221;45.296;9.516;2023-03-16T00:23:16;9.10;76.60
47813;DHT22;34221;45.296;9.516;2023-03-16T00:23:33;9.00;76.60
47813;DHT22;34221;45.296;9.516;2023-03-16T00:23:51;9.00;77.50
47813;DHT22;34221;45.296;9.516;2023-03-16T00:24:07;9.10;76.90
47813;DHT22;34221;45.296;9.516;2023-03-16T00:24:22;9.00;77.30
47813;DHT22;34221;45.296;9.516;2023-03-16T00:24:38;9.10;76.50
47813;DHT22;34221;45.296;9.516;2023-03-16T00:24:54;9.10;76.70
47813;DHT22;34221;45.296;9.516;2023-03-16T00:25:10;9.10;76.50
47813;DHT22;34221;45.296;9.516;2023-03-16T00:25:26;9.10;76.60
47813;DHT22;34221;45.296;9.516;2023-03-16T00:25:41;9.10;76.80
47813;DHT22;34221;45.296;9.516;2023-03-16T00:25:58;9.00;77.00
47813;DHT22;34221;45.296;9.516;2023-03-16T00:26:13;9.10;77.50
47813;DHT22;34221;45.296;9.516;2023-03-16T00:26:28;9.10;77.30
47813;DHT22;34221;45.296;9.516;2023-03-16T00:26:45;9.10;77.20
47813;DHT22;34221;45.296;9.516;2023-03-16T00:27:01;9.10;77.10
47813;DHT22;34221;45.296;9.516;2023-03-16T00:27:16;9.10;77.00
47813;DHT22;34221;45.296;9.516;2023-03-16T00:27:31;9.00;76.60
47813;DHT22;34221;45.296;9.516;2023-03-16T00:27:46;9.10;76.50
47813;DHT22;34221;45.296;9.516;2023-03-16T00:28:01;9.00;77.20
47813;DHT22;34221;45.296;9.516;2023-03-16T00:28:17;9.10;76.90
47813;DHT22;34221;45.296;9.516;2023-03-16T00:28:33;9.00;76.50
47813;DHT22;34221;45.296;9.516;2023-03-16T00:28:49;9.00;76.50
47813;DHT22;34221;45.296;9.516;2023-03-16T00:29:08;9.00;76.90
47813;DHT22;34221;45.296;9.516;2023-03-16T00:29:23;9.00;76.80
47813;DHT22;34221;45.296;9.516;2023-03-16T00:29:43;9.00;76.50
47813;DHT22;34221;45.296;9.516;2023-03-16T00:30:02;9.00;76.40
47813;DHT22;34221;45.296;9.516;2023-03-16T00:30:19;9.00;76.50
47813;DHT22;34221;45.296;9.516;2023-03-16T00:30:34;9.00;76.70
47813;DHT22;34221;45.296;9.516;2023-03-16T00:30:49;9.00;76.70
47813;DHT22;34221;45.296;9.516;2023-03-16T00:31:08;9.00;76.60
47813;DHT22;34221;45.296;9.516;2023-03-16T00:31:25;9.00;77.20
47813;DHT22;34221;45.296;9.516;2023-03-16T00:31:41;8.90;76.70
47813;DHT22;34221;45.296;9.516;2023-03-16T00:31:58;9.00;76.90
47813;DHT22;34221;45.296;9.516;2023-03-16T00:32:18;9.00;77.20
47813;DHT22;34221;45.296;9.516;2023-03-16T00:32:37;9.00;76.80
47813;DHT22;34221;45.296;9.516;2023-03-16T00:32:52;9.00;76.50
47813;DHT22;34221;45.296;9.516;2023-03-16T00:33:07;8.90;76.70
47813;DHT22;34221;45.296;9.516;2023-03-16T00:33:22;8.90;76.90
47813;DHT22;34221;45.296;9.516;2023-03-16T00:33:38;9.00;77.10
47813;DHT22;34221;45.296;9.516;2023-03-16T00:33:53;9.00;77.40
47813;DHT22;34221;45.296;9.516;2023-03-16T00:34:10;9.00;76.90
47813;DHT22;34221;45.296;9.516;2023-03-16T00:34:25;9.00;76.90
47813;DHT22;34221;45.296;9.516;2023-03-16T00:34:45;9.00;77.00
47813;DHT22;34221;45.296;9.516;2023-03-16T00:35:01;8.90;77.00
47813;DHT22;34221;45.296;9.516;2023-03-16T00:35:18;8.90;76.70
47813;DHT22;34221;45.296;9.516;2023-03-16T00:35:33;8.90;76.80
47813;DHT22;34221;45.296;9.516;2023-03-16T00:35:48;8.90;77.00
47813;DHT22;34221;45.296;9.516;2023-03-16T00:36:04;8.90;77.40
47813;DHT22;34221;45.296;9.516;2023-03-16T00:36:23;8.90;77.10
47813;DHT22;34221;45.296;9.516;2023-03-16T00:36:38;8.90;76.80
47813;DHT22;34221;45.296;9.516;2023-03-16T00:36:53;8.90;77.10
47813;DHT22;34221;45.296;9.516;2023-03-16T00:37:09;9.00;77.90
47813;DHT22;34221;45.296;9.516;2023-03-16T00:37:29;9.00;78.10
47813;DHT22;34221;45.296;9.516;2023-03-16T00:37:47;9.00;77.50
47813;DHT22;34221;45.296;9.516;2023-03-16T00:38:02;9.00;77.50
47813;DHT22;34221;45.296;9.516;2023-03-16T00:38:18;9.00;78.00
47813;DHT22;34221;45.296;9.516;2023-03-16T00:38:39;9.00;77.50
47813;DHT22;34221;45.296;9.516;2023-03-16T00:38:58;9.00;77.10
47813;DHT22;34221;45.296;9.516;2023-03-16T00:39:13;9.00;76.80
47813;DHT22;34221;45.296;9.516;2023-03-16T00:39:28;9.00;77.10
47813;DHT22;34221;45.296;9.516;2023-03-16T00:39:45;9.00;77.30
47813;DHT22;34221;45.296;9.516;2023-03-16T00:40:00;9.00;77.00
47813;DHT22;34221;45.296;9.516;2023-03-16T00:40:17;9.00;76.50
47813;DHT22;34221;45.296;9.516;2023-03-16T00:40:32;9.00;76.50
47813;DHT22;34221;45.296;9.516;2023-03-16T00:40:47;9.00;76.50
47813;DHT22;34221;45.296;9.516;2023-03-16T00:41:06;9.00;76.10
47813;DHT22;34221;45.296;9.516;2023-03-16T00:41:21;9.00;76.30
47813;DHT22;34221;45.296;9.516;2023-03-16T00:41:36;9.00;76.40
47813;DHT22;34221;45.296;9.516;2023-03-16T00:41:51;9.00;76.10
47813;DHT22;34221;45.296;9.516;2023-03-16T00:42:13;9.00;75.80
47813;DHT22;34221;45.296;9.516;2023-03-16T00:42:29;9.00;76.10
47813;DHT22;34221;45.296;9.516;2023-03-16T00:42:46;8.90;75.90
47813;DHT22;34221;45.296;9.516;2023-03-16T00:43:01;9.00;76.40
47813;DHT22;34221;45.296;9.516;2023-03-16T00:43:16;9.00;75.90
47813;DHT22;34221;45.296;9.516;2023-03-16T00:43:35;9.00;75.20
47813;DHT22;34221;45.296;9.516;2023-03-16T00:43:54;9.00;75.10
47813;DHT22;34221;45.296;9.516;2023-03-16T00:44:09;8.90;75.20
47813;DHT22;34221;45.296;9.516;2023-03-16T00:44:25;8.90;75.10
47813;DHT22;34221;45.296;9.516;2023-03-16T00:44:40;8.90;75.00
47813;DHT22;34221;45.296;9.516;2023-03-16T00:44:57;8.90;75.00
47813;DHT22;34221;45.296;9.516;2023-03-16T00:45:12;8.90;74.90
47813;DHT22;34221;45.296;9.516;2023-03-16T00:45:27;8.90;74.80
47813;DHT22;34221;45.296;9.516;2023-03-16T00:45:43;8.90;74.70
47813;DHT22;34221;45.296;9.516;2023-03-16T00:45:59;8.90;74.70
47813;DHT22;34221;45.296;9.516;2023-03-16T00:46:20;8.90;75.30
47813;DHT22;34221;45.296;9.516;2023-03-16T00:46:40;8.90;74.70
47813;DHT22;34221;45.296;9.516;2023-03-16T00:46:57;8.80;74.70
47813;DHT22;34221;45.296;9.516;2023-03-16T00:47:13;8.80;74.60
47813;DHT22;34221;45.296;9.516;2023-03-16T00:47:30;8.80;74.60
47813;DHT22;34221;45.296;9.516;2023-03-16T00:47:46;8.80;74.50
47813;DHT22;34221;45.296;9.516;2023-03-16T00:48:01;8.80;74.40
47813;DHT22;34221;45.296;9.516;2023-03-16T00:48:16;8.80;74.50
47813;DHT22;34221;45.296;9.516;2023-03-16T00:48:33;8.80;74.10
47813;DHT22;34221;45.296;9.516;2023-03-16T00:48:48;8.80;74.20
47813;DHT22;34221;45.296;9.516;2023-03-16T00:49:03;8.80;74.00
47813;DHT22;34221;45.296;9.516;2023-03-16T00:49:18;8.70;74.00
47813;DHT22;34221;45.296;9.516;2023-03-16T00:49:35;8.70;74.00
47813;DHT22;34221;45.296;9.516;2023-03-16T00:49:50;8.70;74.00
47813;DHT22;34221;45.296;9.516;2023-03-16T00:50:05;8.70;73.90
47813;DHT22;34221;45.296;9.516;2023-03-16T00:50:21;8.70;73.80
47813;DHT22;34221;45.296;9.516;2023-03-16T00:50:36;8.70;73.70
47813;DHT22;34221;45.296;9.516;2023-03-16T00:50:52;8.70;73.60
47813;DHT22;34221;45.296;9.516;2023-03-16T00:51:14;8.70;73.20
47813;DHT22;34221;45.296;9.516;2023-03-16T00:51:30;8.70;73.00
47813;DHT22;34221;45.296;9.516;2023-03-16T00:51:47;8.70;72.90
47813;DHT22;34221;45.296;9.516;2023-03-16T00:52:05;8.70;72.80
47813;DHT22;34221;45.296;9.516;2023-03-16T00:52:22;8.70;72.60
47813;DHT22;34221;45.296;9.516;2023-03-16T00:52:38;8.70;72.40
47813;DHT22;34221;45.296;9.516;2023-03-16T00:52:56;8.70;72.40
47813;DHT22;34221;45.296;9.516;2023-03-16T00:53:11;8.70;72.10
47813;DHT22;34221;45.296;9.516;2023-03-16T00:53:25;8.70;71.70
47813;DHT22;34221;45.296;9.516;2023-03-16T00:53:42;8.70;71.40
47813;DHT22;34221;45.296;9.516;2023-03-16T00:53:57;8.70;71.20
47813;DHT22;34221;45.296;9.516;2023-03-16T00:54:13;8.70;70.90
47813;DHT22;34221;45.296;9.516;2023-03-16T00:54:28;8.70;71.00
47813;DHT22;34221;45.296;9.516;2023-03-16T00:54:45;8.70;70.90
47813;DHT22;34221;45.296;9.516;2023-03-16T00:55:01;8.70;70.40
47813;DHT22;34221;45.296;9.516;2023-03-16T00:55:19;8.70;70.20
47813;DHT22;34221;45.296;9.516;2023-03-16T00:55:34;8.70;69.90
47813;DHT22;34221;45.296;9.516;2023-03-16T00:55:49;8.70;69.70
47813;DHT22;34221;45.296;9.516;2023-03-16T00:56:07;8.70;69.30
47813;DHT22;34221;45.296;9.516;2023-03-16T00:56:22;8.70;69.20
47813;DHT22;34221;45.296;9.516;2023-03-16T00:56:37;8.70;69.20
47813;DHT22;34221;45.296;9.516;2023-03-16T00:56:52;8.60;68.90
47813;DHT22;34221;45.296;9.516;2023-03-16T00:57:08;8.60;68.50
47813;DHT22;34221;45.296;9.516;2023-03-16T00:57:24;8.60;68.50
47813;DHT22;34221;45.296;9.516;2023-03-16T00:57:41;8.60;68.50
47813;DHT22;34221;45.296;9.516;2023-03-16T00:57:56;8.60;68.40
47813;DHT22;34221;45.296;9.516;2023-03-16T00:58:11;8.60;68.20
47813;DHT22;34221;45.296;9.516;2023-03-16T00:58:32;8.60;68.10
47813;DHT22;34221;45.296;9.516;2023-03-16T00:58:49;8.60;68.10
47813;DHT22;34221;45.296;9.516;2023-03-16T00:59:04;8.60;68.00
47813;DHT22;34221;45.296;9.516;2023-03-16T00:59:19;8.60;68.10
47813;DHT22;34221;45.296;9.516;2023-03-16T00:59:35;8.60;68.00
47813;DHT22;34221;45.296;9.516;2023-03-16T00:59:51;8.60;67.90
47813;DHT22;34221;45.296;9.516;2023-03-16T01:00:07;8.60;67.80
47813;DHT22;34221;45.296;9.516;2023-03-16T01:00:28;8.60;67.80
47813;DHT22;34221;45.296;9.516;2023-03-16T01:00:43;8.60;67.60
47813;DHT22;34221;45.296;9.516;2023-03-16T01:00:59;8.60;66.90
47813;DHT22;34221;45.296;9.516;2023-03-16T01:01:18;8.60;66.60
47813;DHT22;34221;45.296;9.516;2023-03-16T01:01:33;8.60;66.40
47813;DHT22;34221;45.296;9.516;2023-03-16T01:01:48;8.60;66.30
47813;DHT22;34221;45.296;9.516;2023-03-16T01:02:05;8.60;66.20
47813;DHT22;34221;45.296;9.516;2023-03-16T01:02:20;8.60;66.20
47813;DHT22;34221;45.296;9.516;2023-03-16T01:02:38;8.60;66.10
47813;DHT22;34221;45.296;9.516;2023-03-16T01:02:53;8.60;66.00
47813;DHT22;34221;45.296;9.516;2023-03-16T01:03:08;8.60;65.50
47813;DHT22;34221;45.296;9.516;2023-03-16T01:03:23;8.60;65.20
47813;DHT22;34221;45.296;9.516;2023-03-16T01:03:38;8.60;65.20
47813;DHT22;34221;45.296;9.516;2023-03-16T01:03:55;8.60;65.50
47813;DHT22;34221;45.296;9.516;2023-03-16T01:04:10;8.60;65.10
47813;DHT22;34221;45.296;9.516;2023-03-16T01:04:25;8.60;64.60
47813;DHT22;34221;45.296;9.516;2023-03-16T01:04:41;8.60;64.80
47813;DHT22;34221;45.296;9.516;2023-03-16T01:04:56;8.60;64.40
47813;DHT22;34221;45.296;9.516;2023-03-16T01:05:12;8.60;64.60
47813;DHT22;34221;45.296;9.516;2023-03-16T01:05:27;8.60;64.40
47813;DHT22;34221;45.296;9.516;2023-03-16T01:05:42;8.60;64.50
47813;DHT22;34221;45.296;9.516;2023-03-16T01:06:01;8.60;64.40
47813;DHT22;34221;45.296;9.516;2023-03-16T01:06:18;8.60;64.30
47813;DHT22;34221;45.296;9.516;2023-03-16T01:06:34;8.70;64.00
47813;DHT22;34221;45.296;9.516;2023-03-16T01:06:49;8.70;64.20
47813;DHT22;34221;45.296;9.516;2023-03-16T01:07:05;8.70;63.90
47813;DHT22;34221;45.296;9.516;2023-03-16T01:07:21;8.70;63.70
47813;DHT22;34221;45.296;9.516;2023-03-16T01:07:36;8.70;63.50
47813;DHT22;34221;45.296;9.516;2023-03-16T01:07:53;8.70;63.30
47813;DHT22;34221;45.296;9.516;2023-03-16T01:08:08;8.70;63.70
47813;DHT22;34221;45.296;9.516;2023-03-16T01:08:23;8.60;63.40
47813;DHT22;34221;45.296;9.516;2023-03-16T01:08:39;8.70;63.10
47813;DHT22;34221;45.296;9.516;2023-03-16T01:08:55;8.70;63.00
47813;DHT22;34221;45.296;9.516;2023-03-16T01:09:12;8.70;62.90
47813;DHT22;34221;45.296;9.516;2023-03-16T01:09:28;8.70;62.80
47813;DHT22;34221;45.296;9.516;2023-03-16T01:09:44;8.70;62.50
47813;DHT22;34221;45.296;9.516;2023-03-16T01:10:00;8.70;62.40
47813;DHT22;34221;45.296;9.516;2023-03-16T01:10:14;8.70;62.60
47813;DHT22;34221;45.296;9.516;2023-03-16T01:10:31;8.70;62.90
47813;DHT22;34221;45.296;9.516;2023-03-16T01:10:48;8.70;62.40
47813;DHT22;34221;45.296;9.516;2023-03-16T01:11:14;8.70;62.00
47813;DHT22;34221;45.296;9.516;2023-03-16T01:11:32;8.70;61.80
47813;DHT22;34221;45.296;9.516;2023-03-16T01:11:47;8.70;62.00
47813;DHT22;34221;45.296;9.516;2023-03-16T01:12:13;8.70;61.40
47813;DHT22;34221;45.296;9.516;2023-03-16T01:12:29;8.60;61.30
47813;DHT22;34221;45.296;9.516;2023-03-16T01:12:44;8.60;61.30
47813;DHT22;34221;45.296;9.516;2023-03-16T01:12:59;8.60;61.10
47813;DHT22;34221;45.296;9.516;2023-03-16T01:13:16;8.60;61.10
47813;DHT22;34221;45.296;9.516;2023-03-16T01:13:31;8.60;61.00
47813;DHT22;34221;45.296;9.516;2023-03-16T01:13:48;8.60;61.10
47813;DHT22;34221;45.296;9.516;2023-03-16T01:14:04;8.70;60.80
47813;DHT22;34221;45.296;9.516;2023-03-16T01:14:21;8.60;60.70
47813;DHT22;34221;45.296;9.516;2023-03-16T01:14:36;8.70;60.80
47813;DHT22;34221;45.296;9.516;2023-03-16T01:14:51;8.70;60.70
47813;DHT22;34221;45.296;9.516;2023-03-16T01:15:08;8.60;60.30
47813;DHT22;34221;45.296;9.516;2023-03-16T01:15:23;8.60;60.30
47813;DHT22;34221;45.296;9.516;2023-03-16T01:15:38;8.60;60.20
47813;DHT22;34221;45.296;9.516;2023-03-16T01:15:53;8.60;59.80
47813;DHT22;34221;45.296;9.516;2023-03-16T01:16:09;8.60;59.80
47813;DHT22;34221;45.296;9.516;2023-03-16T01:16:25;8.60;59.50
47813;DHT22;34221;45.296;9.516;2023-03-16T01:16:40;8.60;59.20
47813;DHT22;34221;45.296;9.516;2023-03-16T01:17:00;8.60;59.00
47813;DHT22;34221;45.296;9.516;2023-03-16T01:17:16;8.50;59.20
47813;DHT22;34221;45.296;9.516;2023-03-16T01:17:31;8.50;59.40
47813;DHT22;34221;45.296;9.516;2023-03-16T01:17:48;8.50;59.30
47813;DHT22;34221;45.296;9.516;2023-03-16T01:18:03;8.50;59.40
47813;DHT22;34221;45.296;9.516;2023-03-16T01:18:18;8.50;59.20
47813;DHT22;34221;45.296;9.516;2023-03-16T01:18:34;8.50;59.20
47813;DHT22;34221;45.296;9.516;2023-03-16T01:18:49;8.50;59.00
47813;DHT22;34221;45.296;9.516;2023-03-16T01:19:05;8.50;58.90
47813;DHT22;34221;45.296;9.516;2023-03-16T01:19:20;8.50;59.10
47813;DHT22;34221;45.296;9.516;2023-03-16T01:19:37;8.50;59.20
47813;DHT22;34221;45.296;9.516;2023-03-16T01:19:52;8.50;59.10
47813;DHT22;34221;45.296;9.516;2023-03-16T01:20:09;8.50;59.20
47813;DHT22;34221;45.296;9.516;2023-03-16T01:20:32;8.50;59.60
47813;DHT22;34221;45.296;9.516;2023-03-16T01:20:47;8.50;59.40
47813;DHT22;34221;45.296;9.516;2023-03-16T01:21:06;8.50;59.40
47813;DHT22;34221;45.296;9.516;2023-03-16T01:21:22;8.50;59.20
47813;DHT22;34221;45.296;9.516;2023-03-16T01:21:39;8.50;59.30
47813;DHT22;34221;45.296;9.516;2023-03-16T01:21:57;8.50;59.60
47813;DHT22;34221;45.296;9.516;2023-03-16T01:22:12;8.50;59.30
47813;DHT22;34221;45.296;9.516;2023-03-16T01:22:28;8.50;59.30
47813;DHT22;34221;45.296;9.516;2023-03-16T01:22:43;8.50;59.30
47813;DHT22;34221;45.296;9.516;2023-03-16T01:22:58;8.50;59.40
47813;DHT22;34221;45.296;9.516;2023-03-16T01:23:13;8.50;59.10
47813;DHT22;34221;45.296;9.516;2023-03-16T01:23:28;8.50;59.00
47813;DHT22;34221;45.296;9.516;2023-03-16T01:23:44;8.50;58.90
47813;DHT22;34221;45.296;9.516;2023-03-16T01:24:00;8.50;58.70
47813;DHT22;34221;45.296;9.516;2023-03-16T01:24:15;8.50;58.80
47813;DHT22;34221;45.296;9.516;2023-03-16T01:24:30;8.50;58.70
47813;DHT22;34221;45.296;9.516;2023-03-16T01:24:45;8.50;58.30
47813;DHT22;34221;45.296;9.516;2023-03-16T01:25:00;8.50;58.40
47813;DHT22;34221;45.296;9.516;2023-03-16T01:25:16;8.50;58.50
47813;DHT22;34221;45.296;9.516;2023-03-16T01:25:32;8.50;57.90
47813;DHT22;34221;45.296;9.516;2023-03-16T01:25:47;8.40;57.40
47813;DHT22;34221;45.296;9.516;2023-03-16T01:26:06;8.40;57.70
47813;DHT22;34221;45.296;9.516;2023-03-16T01:26:22;8.40;57.70
47813;DHT22;34221;45.296;9.516;2023-03-16T01:26:38;8.40;57.70
47813;DHT22;34221;45.296;9.516;2023-03-16T01:26:53;8.40;57.60
47813;DHT22;34221;45.296;9.516;2023-03-16T01:27:09;8.40;57.30
47813;DHT22;34221;45.296;9.516;2023-03-16T01:27:24;8.40;57.40
47813;DHT22;34221;45.296;9.516;2023-03-16T01:27:40;8.40;57.70
47813;DHT22;34221;45.296;9.516;2023-03-16T01:27:56;8.40;57.40
47813;DHT22;34221;45.296;9.516;2023-03-16T01:28:11;8.40;56.90
47813;DHT22;34221;45.296;9.516;2023-03-16T01:28:29;8.40;57.00
47813;DHT22;34221;45.296;9.516;2023-03-16T01:28:46;8.40;57.10
47813;DHT22;34221;45.296;9.516;2023-03-16T01:29:01;8.40;57.30
47813;DHT22;34221;45.296;9.516;2023-03-16T01:29:17;8.40;57.00
47813;DHT22;34221;45.296;9.516;2023-03-16T01:29:32;8.40;56.80
47813;DHT22;34221;45.296;9.516;2023-03-16T01:29:47;8.40;56.70
47813;DHT22;34221;45.296;9.516;2023-03-16T01:30:03;8.40;56.90
47813;DHT22;34221;45.296;9.516;2023-03-16T01:30:19;8.40;57.20
47813;DHT22;34221;45.296;9.516;2023-03-16T01:30:34;8.40;57.00
47813;DHT22;34221;45.296;9.516;2023-03-16T01:30:51;8.40;56.40
47813;DHT22;34221;45.296;9.516;2023-03-16T01:31:12;8.40;56.30
47813;DHT22;34221;45.296;9.516;2023-03-16T01:31:28;8.40;56.30
47813;DHT22;34221;45.296;9.516;2023-03-16T01:31:44;8.40;55.90
47813;DHT22;34221;45.296;9.516;2023-03-16T01:32:00;8.40;55.90
47813;DHT22;34221;45.296;9.516;2023-03-16T01:32:15;8.40;56.30
47813;DHT22;34221;45.296;9.516;2023-03-16T01:32:30;8.40;56.40
47813;DHT22;34221;45.296;9.516;2023-03-16T01:32:46;8.40;56.10
47813;DHT22;34221;45.296;9.516;2023-03-16T01:33:01;8.50;56.30
47813;DHT22;34221;45.296;9.516;2023-03-16T01:33:37;8.50;55.70
47813;DHT22;34221;45.296;9.516;2023-03-16T01:33:56;8.40;55.30
47813;DHT22;34221;45.296;9.516;2023-03-16T01:34:15;8.50;55.70
47813;DHT22;34221;45.296;9.516;2023-03-16T01:34:33;8.50;55.90
47813;DHT22;34221;45.296;9.516;2023-03-16T01:34:48;8.50;55.50
47813;DHT22;34221;45.296;9.516;2023-03-16T01:35:06;8.40;55.40
47813;DHT22;34221;45.296;9.516;2023-03-16T01:35:21;8.40;55.30
47813;DHT22;34221;45.296;9.516;2023-03-16T01:35:37;8.40;55.20
47813;DHT22;34221;45.296;9.516;2023-03-16T01:36:03;8.40;55.00
47813;DHT22;34221;45.296;9.516;2023-03-16T01:36:28;8.40;54.80
47813;DHT22;34221;45.296;9.516;2023-03-16T01:36:49;8.40;55.80
47813;DHT22;34221;45.296;9.516;2023-03-16T01:37:13;8.40;55.00
47813;DHT22;34221;45.296;9.516;2023-03-16T01:37:40;8.40;54.60
47813;DHT22;34221;45.296;9.516;2023-03-16T01:38:04;8.40;54.90
47813;DHT22;34221;45.296;9.516;2023-03-16T01:38:21;8.40;55.20
47813;DHT22;34221;45.296;9.516;2023-03-16T01:38:36;8.40;55.40
47813;DHT22;34221;45.296;9.516;2023-03-16T01:38:51;8.40;55.40
47813;DHT22;34221;45.296;9.516;2023-03-16T01:39:06;8.40;55.20
47813;DHT22;34221;45.296;9.516;2023-03-16T01:39:29;8.40;55.10
47813;DHT22;34221;45.296;9.516;2023-03-16T01:39:44;8.40;55.00
47813;DHT22;34221;45.296;9.516;2023-03-16T01:40:00;8.40;55.10
47813;DHT22;34221;45.296;9.516;2023-03-16T01:40:17;8.40;54.70
47813;DHT22;34221;45.296;9.516;2023-03-16T01:40:33;8.40;54.80
47813;DHT22;34221;45.296;9.516;2023-03-16T01:40:50;8.40;54.90
47813;DHT22;34221;45.296;9.516;2023-03-16T01:41:07;8.40;55.20
47813;DHT22;34221;45.296;9.516;2023-03-16T01:41:22;8.40;55.00
47813;DHT22;34221;45.296;9.516;2023-03-16T01:41:38;8.40;55.10
47813;DHT22;34221;45.296;9.516;2023-03-16T01:41:56;8.40;55.30
47813;DHT22;34221;45.296;9.516;2023-03-16T01:42:11;8.40;55.00
47813;DHT22;34221;45.296;9.516;2023-03-16T01:42:28;8.40;55.00
47813;DHT22;34221;45.296;9.516;2023-03-16T01:42:47;8.40;55.00
47813;DHT22;34221;45.296;9.516;2023-03-16T01:43:06;8.40;54.50
47813;DHT22;34221;45.296;9.516;2023-03-16T01:43:30;8.40;54.50
47813;DHT22;34221;45.296;9.516;2023-03-16T01:43:47;8.40;54.90
47813;DHT22;34221;45.296;9.516;2023-03-16T01:44:03;8.40;54.70
47813;DHT22;34221;45.296;9.516;2023-03-16T01:44:22;8.40;54.60
47813;DHT22;34221;45.296;9.516;2023-03-16T01:44:54;8.40;54.40
47813;DHT22;34221;45.296;9.516;2023-03-16T01:46:26;8.30;54.30
47813;DHT22;34221;45.296;9.516;2023-03-16T01:46:45;8.40;55.00
47813;DHT22;34221;45.296;9.516;2023-03-16T01:47:00;8.40;54.70
47813;DHT22;34221;45.296;9.516;2023-03-16T01:47:15;8.40;54.30
47813;DHT22;34221;45.296;9.516;2023-03-16T01:47:32;8.40;54.30